This demonstration page uses our WeatherBlox Daily Observations layout. Learn more.

36.19886, -115.1175

Hourly Observations for September 16, 2019

Temp ( °F °C ) Dew Point ( °F °C ) Humidity (%) Winds ( mph kmh ) Pressure ( in mb ) Visibility ( mi km ) Precip ( " mm )
12:53 am 00:53 Clear 86 30 27 -2.8 12 12 S 6 9 29.77 1008 10 16.09344 0 0
1:53 am 01:53 Clear 85 29.4 30 -1.1 14 14 S 8 13 29.77 1008 10 16.09344 0 0
2:53 am 02:53 Clear 83 28.3 31 -0.6 15 15 SSW 10 17 29.77 1008 10 16.09344 0 0
3:53 am 03:53 Clear 83 28.3 32 0 16 16 ESE 9 15 29.77 1008 10 16.09344 0 0
4:53 am 04:53 Clear 82 27.8 32 0 16 16 S 10 17 29.77 1008 10 16.09344 0 0
5:53 am 05:53 Clear 79 26.1 32 0 18 18 SSE 13 20 29.8 1009 10 16.09344 0 0
6:53 am 06:53 Sunny 80 26.7 33 0.6 18 18 SSE 10 17 29.8 1009 10 16.09344 0 0
7:53 am 07:53 Sunny 81 27.2 31 -0.6 16 16 S 18 30 29.8 1009 10 16.09344 0 0
8:53 am 08:53 Sunny 87 30.6 26 -3.3 11 11 S 13 20 29.8 1009 10 16.09344 0 0
9:53 am 09:53 Sunny 88 31.1 25 -3.9 10 10 S 17 28 29.83 1010 10 16.09344 0 0
10:53 am 10:53 Sunny 91 32.8 24 -4.4 9 9 S 18 30 29.8 1009 10 16.09344 0 0
11:53 am 11:53 Sunny 94 34.4 22 -5.6 7 7 S 22 35 29.8 1009 10 16.09344 0 0
12:53 pm 12:53 Sunny 95 35 27 -2.8 9 9 SSW 22 35 29.77 1008 10 16.09344 0 0
1:53 pm 13:53 Sunny 95 35 26 -3.3 8 8 SSW 17 28 29.74 1007 10 16.09344 0 0
2:53 pm 14:53 Sunny 94 34.4 26 -3.3 9 9 SSW 24 39 29.74 1007 10 16.09344 0 0
3:53 pm 15:53 Sunny 93 33.9 30 -1.1 10 10 SW 20 31 29.71 1006 10 16.09344 0 0
4:53 pm 16:53 Sunny 93 33.9 30 -1.1 10 10 SW 24 39 29.71 1006 10 16.09344 0 0
5:53 pm 17:53 Mostly Sunny 92 33.3 29 -1.7 10 10 SW 18 30 29.71 1006 10 16.09344 0 0
6:53 pm 18:53 Clear 89 31.7 29 -1.7 11 11 WSW 14 22 29.71 1006 10 16.09344 0 0
7:53 pm 19:53 Clear 87 30.6 35 1.7 16 16 SSW 9 15 29.71 1006 10 16.09344 0 0
8:53 pm 20:53 Clear 86 30 34 1.1 15 15 S 12 19 29.71 1006 10 16.09344 0 0
9:53 pm 21:53 Clear 85 29.4 30 -1.1 14 14 SSW 18 30 29.71 1006 10 16.09344 0 0
10:53 pm 22:53 Clear 84 28.9 29 -1.7 13 13 SSW 9 15 29.74 1007 10 16.09344 0 0
11:53 pm 23:53 Clear 82 27.8 28 -2.2 14 14 SSW 20 31 29.74 1007 10 16.09344 0 0

Powered by AerisWeather